Data for 12/28/2005

Time Sea-Level Adjusted Pressure Absolute Pressure Temperature Relative Humidity Dew Point   
(mb) (inHg) (mb) (inHg) (C) (F) (%) (C) (F)
00:05 1015 29.97 844 24.92 4.3 39.7 59 -3 26.5
00:10 1015 29.97 844 24.92 4.1 39.4 59 -3.1 26.4
00:15 1015 29.97 844 24.92 4.1 39.4 59 -3.1 26.4
00:20 1015 29.97 844 24.92 4 39.1 61 -2.9 26.8
00:25 1014 29.94 844 24.92 3.9 39 61 -3 26.7
00:30 1014 29.94 844 24.92 4 39.2 60 -3.2 26.3
00:35 1014 29.94 844 24.92 4.2 39.6 59 -3.1 26.4
00:40 1014 29.94 843 24.89 4.2 39.5 60 -3 26.6
00:45 1014 29.94 843 24.89 4.2 39.6 59 -3 26.6
00:50 1014 29.94 843 24.89 4.4 40 58 -3 26.5
00:55 1014 29.94 843 24.89 4.6 40.3 58 -2.9 26.9
01:00 1014 29.94 843 24.89 4.7 40.5 58 -2.8 27
01:05 1014 29.94 843 24.89 4.7 40.4 59 -2.6 27.3
01:10 1014 29.94 844 24.92 4.6 40.3 60 -2.5 27.5
01:15 1014 29.94 843 24.89 4.5 40.1 61 -2.4 27.7
01:20 1014 29.94 843 24.89 4.3 39.8 62 -2.3 27.8
01:25 1014 29.94 843 24.89 4.2 39.6 60 -2.7 27.1
01:30 1014 29.94 843 24.89 3.9 39 62 -2.7 27.1
01:35 1014 29.94 843 24.89 3.9 39 62 -2.8 27
01:40 1014 29.94 843 24.89 3.8 38.9 62 -2.8 26.9
01:45 1014 29.94 843 24.89 3.8 38.9 63 -2.7 27.2
01:50 1014 29.94 843 24.89 3.9 39 63 -2.6 27.3
01:55 1014 29.94 843 24.89 3.9 39 62 -2.6 27.3
02:00 1014 29.94 843 24.89 3.8 38.9 63 -2.5 27.6
02:05 1014 29.94 843 24.89 3.5 38.3 66 -2.3 27.8
02:10 1014 29.94 843 24.89 3.2 37.8 66 -2.5 27.5
02:15 1014 29.94 844 24.92 3.4 38.1 64 -2.9 26.9
02:20 1014 29.94 844 24.92 3.8 38.8 62 -2.8 26.9
02:25 1014 29.94 844 24.92 3.8 38.8 63 -2.7 27.2
02:30 1015 29.97 844 24.92 3.7 38.7 64 -2.6 27.4
02:35 1015 29.97 844 24.92 3.8 38.8 63 -2.6 27.4
02:40 1015 29.97 844 24.92 3.7 38.7 63 -2.6 27.4
02:45 1015 29.97 844 24.92 3.8 38.8 64 -2.3 27.8
02:50 1015 29.97 844 24.92 3.6 38.5 65 -2.4 27.6
02:55 1015 29.97 844 24.92 3.5 38.3 66 -2.3 27.8
03:00 1015 29.97 844 24.92 3.4 38 66 -2.4 27.8
03:05 1015 29.97 844 24.92 3.3 38 66 -2.4 27.6
03:10 1015 29.97 844 24.92 3.4 38.1 66 -2.4 27.6
03:15 1015 29.97 844 24.92 3.6 38.5 65 -2.4 27.7
03:20 1014 29.94 844 24.92 3.6 38.5 64 -2.5 27.6
03:25 1014 29.94 844 24.92 3.7 38.6 64 -2.4 27.6
03:30 1014 29.94 843 24.89 3.8 38.8 63 -2.6 27.3
03:35 1014 29.94 843 24.89 3.9 39.1 63 -2.5 27.4
03:40 1014 29.94 843 24.89 4 39.3 62 -2.5 27.4
03:45 1014 29.94 843 24.89 4.1 39.3 61 -2.7 27.2
03:50 1014 29.94 843 24.89 4.1 39.4 62 -2.5 27.4
03:55 1014 29.94 843 24.89 4 39.2 62 -2.6 27.3
04:00 1014 29.94 843 24.89 4.1 39.3 61 -2.8 27
04:05 1014 29.94 843 24.89 4.4 39.9 60 -2.8 27
04:10 1014 29.94 843 24.89 4.5 40.1 59 -2.7 27.1
04:15 1014 29.94 843 24.89 4.5 40.1 60 -2.5 27.4
04:20 1014 29.94 843 24.89 4.4 40 60 -2.5 27.4
04:25 1014 29.94 843 24.89 4.4 39.9 61 -2.5 27.5
04:30 1014 29.94 843 24.89 4.3 39.8 61 -2.5 27.5
04:35 1014 29.94 843 24.89 4.4 39.9 61 -2.6 27.4
04:40 1014 29.94 843 24.89 4.5 40.1 60 -2.7 27.1
04:45 1014 29.94 843 24.89 4.5 40.1 60 -2.6 27.4
04:50 1014 29.94 843 24.89 4.5 40 60 -2.5 27.4
04:55 1014 29.94 843 24.89 4.3 39.8 61 -2.5 27.5
05:00 1013 29.91 843 24.89 4.2 39.6 61 -2.5 27.4
05:05 1013 29.91 843 24.89 4.3 39.8 62 -2.4 27.6
05:10 1013 29.91 843 24.89 4.3 39.7 61 -2.6 27.3
05:15 1013 29.91 843 24.89 4.3 39.8 61 -2.6 27.4
05:20 1013 29.91 842 24.86 4.3 39.8 62 -2.4 27.8
05:25 1013 29.91 842 24.86 4.2 39.6 62 -2.5 27.5
05:30 1013 29.91 842 24.86 4.1 39.4 62 -2.6 27.3
05:35 1013 29.91 842 24.86 4.2 39.6 62 -2.5 27.5
05:40 1013 29.91 842 24.86 4.2 39.5 63 -2.3 27.9
05:45 1013 29.91 842 24.86 3.8 38.9 64 -2.3 27.8
05:50 1013 29.91 842 24.86 3.9 39.1 64 -2.3 27.9
05:55 1013 29.91 842 24.86 4 39.1 66 -1.8 28.7
06:00 1013 29.91 842 24.86 3.7 38.7 67 -1.8 28.7
06:05 1013 29.91 842 24.86 3.6 38.5 65 -2.3 27.9
06:10 1013 29.91 842 24.86 3.7 38.6 67 -1.9 28.7
06:15 1013 29.91 842 24.86 3.5 38.3 68 -2 28.5
06:20 1013 29.91 842 24.86 3.4 38.1 69 -1.8 28.8
06:25 1013 29.91 842 24.86 3.3 37.9 68 -2.1 28.3
06:30 1013 29.91 842 24.86 3.3 38 68 -2 28.4
06:35 1013 29.91 842 24.86 3.2 37.7 69 -2 28.4
06:40 1013 29.91 842 24.86 3.3 37.9 68 -2.1 28.2
06:45 1013 29.91 842 24.86 3.4 38.1 66 -2.3 27.8
06:50 1013 29.91 842 24.86 3.6 38.5 65 -2.3 27.9
06:55 1013 29.91 842 24.86 3.6 38.4 65 -2.3 27.8
07:00 1013 29.91 842 24.86 3.6 38.5 67 -1.9 28.5
07:05 1013 29.91 842 24.86 3.7 38.7 68 -1.6 29.1
07:10 1013 29.91 842 24.86 3.5 38.3 67 -2 28.4
07:15 1013 29.91 842 24.86 3.4 38.2 68 -1.8 28.7
07:20 1013 29.91 842 24.86 3.3 37.9 69 -1.8 28.8
07:25 1013 29.91 842 24.86 3.2 37.7 70 -1.8 28.8
07:30 1013 29.91 842 24.86 3.2 37.8 69 -1.9 28.6
07:35 1013 29.91 842 24.86 3.4 38.2 69 -1.7 28.9
07:40 1013 29.91 842 24.86 3.4 38 70 -1.6 29.1
07:45 1013 29.91 842 24.86 3.4 38.2 67 -2.1 28.2
07:50 1013 29.91 842 24.86 3.6 38.6 68 -1.8 28.8
07:55 1013 29.91 842 24.86 3.6 38.5 68 -1.8 28.7
08:00 1013 29.91 842 24.86 3.4 38.2 68 -1.9 28.6
08:05 1013 29.91 842 24.86 3.5 38.3 66 -2.3 27.9
08:10 1013 29.91 842 24.86 3.8 38.8 65 -2.2 28.1
08:15 1013 29.91 842 24.86 3.9 38.9 65 -2 28.4
08:20 1013 29.91 842 24.86 3.8 38.8 66 -1.9 28.5
08:25 1013 29.91 842 24.86 3.7 38.6 67 -1.8 28.7
08:30 1013 29.91 842 24.86 3.5 38.4 67 -1.9 28.5
08:35 1013 29.91 842 24.86 3.6 38.5 68 -1.7 28.9
08:40 1013 29.91 842 24.86 3.6 38.4 68 -1.8 28.8
08:45 1013 29.91 842 24.86 3.6 38.4 67 -1.9 28.6
08:50 1013 29.91 842 24.86 3.3 37.9 70 -1.8 28.8
08:55 1013 29.91 842 24.86 3 37.4 70 -1.9 28.5
09:00 1013 29.91 842 24.86 3 37.4 69 -2.2 28.1
09:05 1013 29.91 842 24.86 3.2 37.8 68 -2.1 28.2
09:10 1013 29.91 842 24.86 3.5 38.3 67 -2 28.4
09:15 1013 29.91 842 24.86 3.6 38.5 66 -2.1 28.2
09:20 1013 29.91 842 24.86 3.5 38.3 68 -1.8 28.7
09:25 1013 29.91 842 24.86 3.3 37.9 70 -1.7 28.9
09:30 1013 29.91 842 24.86 3.2 37.7 69 -2 28.4
09:35 1013 29.91 842 24.86 3.4 38.1 68 -2 28.4
09:40 1013 29.91 842 24.86 3.5 38.4 69 -1.7 29
09:45 1013 29.91 842 24.86 3.5 38.3 67 -2 28.3
09:50 1013 29.91 842 24.86 3.5 38.2 68 -1.8 28.8
09:55 1013 29.91 842 24.86 3.5 38.3 70 -1.5 29.2
10:00 1013 29.91 842 24.86 3.4 38.1 72 -1.1 29.9
10:05 1013 29.91 842 24.86 3.2 37.7 72 -1.3 29.6
10:10 1012 29.88 842 24.86 3.3 37.9 72 -1.4 29.5
10:15 1012 29.88 842 24.86 3.3 38 70 -1.6 29.2
10:20 1013 29.91 842 24.86 3.4 38.2 70 -1.4 29.4
10:25 1013 29.91 842 24.86 3.8 38.8 68 -1.5 29.3
10:30 1012 29.88 842 24.86 4.1 39.3 67 -1.4 29.4
10:35 1012 29.88 841 24.83 4.1 39.3 68 -1.4 29.5
10:40 1012 29.88 841 24.83 4 39.3 68 -1.4 29.5
10:45 1012 29.88 841 24.83 4.1 39.3 67 -1.5 29.3
10:50 1012 29.88 841 24.83 4.2 39.5 66 -1.6 29.2
10:55 1012 29.88 841 24.83 3.9 39.1 67 -1.6 29.2
11:00 1012 29.88 841 24.83 4.1 39.4 66 -1.7 28.9
11:05 1012 29.88 841 24.83 4.4 39.9 66 -1.3 29.6
11:10 1012 29.88 841 24.83 4.5 40 65 -1.5 29.3
11:15 1011 29.85 841 24.83 4.8 40.6 64 -1.4 29.5
11:20 1011 29.85 841 24.83 4.7 40.5 65 -1.3 29.6
11:25 1011 29.85 841 24.83 4.5 40.1 65 -1.6 29.2
11:30 1011 29.85 841 24.83 4.3 39.7 64 -2 28.5
11:35 1011 29.85 840 24.81 4.2 39.6 63 -2.1 28.2
11:40 1011 29.85 840 24.81 4.3 39.7 63 -2.1 28.2
11:45 1011 29.85 840 24.81 4.4 40 62 -2.1 28.2
11:50 1011 29.85 840 24.81 4.7 40.4 61 -2.3 27.9
11:55 1011 29.85 840 24.81 4.5 40.1 62 -2.2 28
12:00 1011 29.85 840 24.81 4.7 40.4 62 -1.9 28.5
12:05 1011 29.85 840 24.81 4.8 40.6 62 -2 28.5
12:10 1011 29.85 840 24.81 4.7 40.5 63 -1.7 28.9
12:15 1011 29.85 840 24.81 5 40.9 62 -1.7 28.9
12:20 1011 29.85 840 24.81 5.1 41.1 62 -1.6 29.2
12:25 1011 29.85 840 24.81 5 41.1 63 -1.4 29.5
12:30 1011 29.85 840 24.81 4.9 40.8 63 -1.5 29.4
12:35 1011 29.85 840 24.81 4.8 40.7 67 -0.8 30.5
12:40 1011 29.85 840 24.81 4.6 40.3 67 -0.9 30.3
12:45 1011 29.85 840 24.81 4.5 40.1 70 -0.5 31.1
12:50 1011 29.85 840 24.81 4.6 40.2 69 -0.6 30.8
12:55 1011 29.85 840 24.81 4.5 40.1 71 -0.2 31.6
13:00 1011 29.85 840 24.81 4.4 40 71 -0.3 31.4
13:05 1011 29.85 840 24.81 4 39.1 77 0.3 32.5
13:10 1011 29.85 840 24.81 3.3 38 81 0.3 32.5
13:15 1011 29.85 840 24.81 3.2 37.7 82 0.3 32.6
13:20 1011 29.85 840 24.81 3.1 37.6 82 0.4 32.6
13:25 1011 29.85 840 24.81 3.1 37.6 81 0.2 32.4
13:30 1011 29.85 840 24.81 3 37.4 82 0.3 32.6
13:35 1010 29.83 840 24.81 2.9 37.3 83 0.4 32.6
13:40 1010 29.83 840 24.81 2.7 36.8 84 0.2 32.3
13:45 1010 29.83 839 24.78 2.6 36.7 85 0.4 32.7
13:50 1010 29.83 839 24.78 2.6 36.7 85 0.4 32.7
13:55 1010 29.83 839 24.78 2.6 36.7 84 0.2 32.3
14:00 1010 29.83 839 24.78 2.7 36.9 84 0.4 32.7
14:05 1010 29.83 839 24.78 2.9 37.2 86 0.8 33.4
14:10 1009 29.8 839 24.78 2.9 37.2 86 0.8 33.4
14:15 1009 29.8 839 24.78 2.9 37.2 86 0.7 33.3
14:20 1009 29.8 839 24.78 3 37.5 86 0.9 33.5
14:25 1009 29.8 838 24.75 3.1 37.5 87 1.1 33.9
14:30 1009 29.8 838 24.75 3.1 37.6 88 1.3 34.4
14:35 1009 29.8 838 24.75 3.4 38.1 86 1.3 34.4
14:40 1009 29.8 838 24.75 3.8 38.9 86 1.7 35.1
14:45 1009 29.8 838 24.75 4 39.2 87 2 35.7
14:50 1009 29.8 838 24.75 4.1 39.4 87 2.1 35.8
14:55 1009 29.8 838 24.75 4.2 39.6 87 2.2 35.9
15:00 1009 29.8 838 24.75 4.3 39.7 86 2.2 35.9
15:05 1009 29.8 838 24.75 4.4 40 86 2.3 36.1
15:10 1009 29.8 838 24.75 4.5 40.1 86 2.3 36.2
15:15 1009 29.8 838 24.75 4.5 40.1 86 2.3 36.2
15:20 1009 29.8 838 24.75 4.4 39.9 85 2.2 35.9
15:25 1008 29.77 838 24.75 4.5 40.1 85 2.2 35.9
15:30 1008 29.77 837 24.72 4.6 40.3 83 2 35.7
15:35 1008 29.77 837 24.72 4.8 40.6 82 2 35.6
15:40 1008 29.77 837 24.72 4.9 40.8 81 2 35.6
15:45 1008 29.77 837 24.72 5 40.9 82 2.1 35.8
15:50 1008 29.77 837 24.72 4.9 40.8 82 2.1 35.7
15:55 1008 29.77 837 24.72 4.9 40.8 81 2 35.5
16:00 1008 29.77 837 24.72 5 41 81 2 35.6
16:05 1008 29.77 837 24.72 4.9 40.9 82 2 35.7
16:10 1008 29.77 837 24.72 4.9 40.7 82 2.1 35.7
16:15 1008 29.77 837 24.72 4.7 40.4 83 2 35.6
16:20 1008 29.77 837 24.72 4.8 40.7 82 2 35.7
16:25 1008 29.77 837 24.72 4.8 40.6 82 2 35.6
16:30 1007 29.74 837 24.72 4.9 40.7 82 2 35.5
16:35 1007 29.74 836 24.69 5 41 81 2 35.6
16:40 1007 29.74 836 24.69 5.1 41.2 80 2 35.6
16:45 1007 29.74 836 24.69 5 41 81 2 35.6
16:50 1007 29.74 836 24.69 4.9 40.8 81 1.9 35.4
16:55 1007 29.74 836 24.69 5 41 80 1.8 35.3
17:00 1007 29.74 836 24.69 5 41 80 1.9 35.4
17:05 1007 29.74 836 24.69 5 41 80 1.9 35.4
17:10 1007 29.74 836 24.69 5 41 80 1.9 35.4
17:15 1007 29.74 836 24.69 5 41.1 81 2 35.6
17:20 1007 29.74 836 24.69 5.1 41.1 80 1.9 35.4
17:25 1006 29.71 836 24.69 5.1 41.2 79 1.8 35.2
17:30 1006 29.71 836 24.69 5.1 41.2 79 1.8 35.3
17:35 1006 29.71 835 24.66 5.2 41.4 78 1.7 35.1
17:40 1006 29.71 835 24.66 5.2 41.4 78 1.7 35.1
17:45 1006 29.71 835 24.66 5.1 41.2 78 1.7 35
17:50 1006 29.71 835 24.66 5 41.1 79 1.7 35
17:55 1006 29.71 835 24.66 5 41.1 78 1.6 34.9
18:00 1006 29.71 835 24.66 5.2 41.4 77 1.6 34.8
18:05 1006 29.71 835 24.66 5.3 41.5 78 1.7 35.1
18:10 1006 29.71 835 24.66 5.1 41.1 79 1.7 35
18:15 1006 29.71 835 24.66 5.1 41.2 78 1.6 34.9
18:20 1006 29.71 835 24.66 5.1 41.3 78 1.6 34.9
18:25 1006 29.71 835 24.66 5.4 41.8 77 1.7 35.1
18:30 1006 29.71 835 24.66 5.4 41.7 77 1.7 35.1
18:35 1005 29.68 835 24.66 5.4 41.8 76 1.6 34.8
18:40 1005 29.68 834 24.63 5.6 42 76 1.7 35
18:45 1005 29.68 835 24.66 5.6 42.1 76 1.7 35.1
18:50 1005 29.68 835 24.66 5.6 42.1 76 1.7 35
18:55 1005 29.68 834 24.63 5.4 41.7 77 1.6 34.9
19:00 1005 29.68 834 24.63 5.5 41.9 76 1.5 34.8
19:05 1005 29.68 834 24.63 5.6 42.1 75 1.5 34.7
19:10 1005 29.68 834 24.63 5.8 42.4 74 1.5 34.8
19:15 1005 29.68 834 24.63 5.8 42.4 75 1.6 35
19:20 1005 29.68 834 24.63 5.6 42 76 1.7 35
19:25 1005 29.68 834 24.63 5.6 42.1 75 1.5 34.7
19:30 1005 29.68 834 24.63 5.7 42.2 75 1.6 34.8
19:35 1005 29.68 834 24.63 5.7 42.3 74 1.5 34.7
19:40 1005 29.68 834 24.63 5.7 42.2 75 1.5 34.8
19:45 1005 29.68 834 24.63 5.7 42.3 74 1.4 34.6
19:50 1004 29.65 834 24.63 5.8 42.4 74 1.4 34.6
19:55 1004 29.65 834 24.63 5.8 42.4 74 1.4 34.6
20:00 1004 29.65 833 24.6 5.7 42.2 74 1.5 34.7
20:05 1004 29.65 833 24.6 5.5 41.9 75 1.4 34.6
20:10 1004 29.65 833 24.6 5.4 41.7 75 1.3 34.4
20:15 1004 29.65 833 24.6 5.4 41.7 75 1.3 34.3
20:20 1004 29.65 833 24.6 5.2 41.4 75 1.2 34.2
20:25 1004 29.65 833 24.6 5 41 76 1.2 34.2
20:30 1004 29.65 833 24.6 4.8 40.6 77 1.1 34.1
20:35 1004 29.65 833 24.6 4.8 40.7 77 1.2 34.2
20:40 1004 29.65 833 24.6 5 41 78 1.4 34.5
20:45 1003 29.62 833 24.6 5.1 41.1 77 1.3 34.4
20:50 1003 29.62 833 24.6 5.2 41.3 75 1.2 34.1
20:55 1004 29.65 833 24.6 5.4 41.7 74 1.2 34.1
21:00 1003 29.62 833 24.6 5.5 41.8 73 1.1 34
21:05 1003 29.62 833 24.6 5.4 41.8 73 0.9 33.6
21:10 1004 29.65 833 24.6 5.6 42.1 72 1 33.8
21:15 1004 29.65 833 24.6 5.6 42.2 72 1.1 33.9
21:20 1004 29.65 833 24.6 5.8 42.4 72 1.1 34
21:25 1003 29.62 833 24.6 5.8 42.4 72 1.1 34
21:30 1004 29.65 833 24.6 5.6 42.1 74 1.3 34.4
21:35 1004 29.65 833 24.6 5.2 41.3 73 0.8 33.4
21:40 1003 29.62 833 24.6 5.4 41.7 71 0.5 32.9
21:45 1003 29.62 832 24.57 5.7 42.3 69 0.5 32.9
21:50 1003 29.62 832 24.57 5.7 42.2 73 1.2 34.1
21:55 1003 29.62 832 24.57 5 41.1 74 0.8 33.5
22:00 1003 29.62 832 24.57 5.3 41.5 72 0.7 33.3
22:05 1003 29.62 832 24.57 5.3 41.5 72 0.6 33.1
22:10 1003 29.62 832 24.57 5.4 41.7 72 0.8 33.4
22:15 1003 29.62 832 24.57 5.4 41.8 72 0.7 33.3
22:20 1003 29.62 832 24.57 5.5 42 71 0.7 33.2
22:25 1003 29.62 832 24.57 5.6 42.1 71 0.7 33.3
22:30 1003 29.62 832 24.57 5.5 41.8 72 0.8 33.4
22:35 1003 29.62 832 24.57 5.4 41.8 71 0.7 33.3
22:40 1003 29.62 832 24.57 5.5 41.9 71 0.6 33.1
22:45 1002 29.59 832 24.57 5.3 41.5 73 0.9 33.6
22:50 1002 29.59 832 24.57 4.6 40.3 76 0.8 33.4
22:55 1002 29.59 832 24.57 4.9 40.8 74 0.7 33.3
23:00 1002 29.59 832 24.57 5.1 41.1 73 0.7 33.2
23:05 1003 29.62 832 24.57 5.3 41.6 72 0.6 33.1
23:10 1003 29.62 832 24.57 5.4 41.6 72 0.7 33.2
23:15 1003 29.62 832 24.57 5.5 41.9 71 0.7 33.2
23:20 1003 29.62 832 24.57 5.5 41.9 72 0.8 33.4
23:25 1002 29.59 832 24.57 5.8 42.4 69 0.6 33
23:30 1003 29.62 832 24.57 6 42.8 67 0.4 32.8
23:35 1003 29.62 832 24.57 6.5 43.6 64 0.2 32.4
23:40 1003 29.62 832 24.57 6.8 44.2 64 0.4 32.7
23:45 1003 29.62 832 24.57 7 44.5 64 0.6 33.1
23:50 1003 29.62 833 24.6 5.5 41.9 77 1.9 35.4
23:55 1004 29.65 833 24.6 3.3 37.9 88 1.4 34.6
24:00 1004 29.65 833 24.6 2.1 35.9 92 1 33.8